createdAt,value
2018-05-26T00:02:05.379Z,17.60
2018-05-26T00:04:33.718Z,17.60
2018-05-26T00:07:02.097Z,17.60
2018-05-26T00:09:30.427Z,17.60
2018-05-26T00:11:58.902Z,17.50
2018-05-26T00:14:27.404Z,17.50
2018-05-26T00:16:55.747Z,17.50
2018-05-26T00:19:24.087Z,17.50
2018-05-26T00:21:52.440Z,17.50
2018-05-26T00:24:21.573Z,17.50
2018-05-26T00:26:49.954Z,17.40
2018-05-26T00:29:18.348Z,17.50
2018-05-26T00:31:46.695Z,17.50
2018-05-26T00:34:15.803Z,17.40
2018-05-26T00:36:44.142Z,17.40
2018-05-26T00:39:12.493Z,17.40
2018-05-26T00:41:40.823Z,17.30
2018-05-26T00:44:09.934Z,17.20
2018-05-26T00:46:38.278Z,17.20
2018-05-26T00:49:06.693Z,17.20
2018-05-26T00:51:35.029Z,17.20
2018-05-26T00:54:03.489Z,17.10
2018-05-26T00:56:31.831Z,17.10
2018-05-26T00:59:00.218Z,17.10
2018-05-26T01:01:28.603Z,17.00
2018-05-26T01:03:56.929Z,17.00
2018-05-26T01:06:25.358Z,16.90
2018-05-26T01:08:53.735Z,16.90
2018-05-26T01:11:23.113Z,16.90
2018-05-26T01:13:52.209Z,16.80
2018-05-26T01:16:21.437Z,16.80
2018-05-26T01:18:49.813Z,16.80
2018-05-26T01:21:18.156Z,16.80
2018-05-26T01:23:47.298Z,16.70
2018-05-26T01:26:15.634Z,16.60
2018-05-26T01:28:44.773Z,16.60
2018-05-26T01:31:13.136Z,16.60
2018-05-26T01:33:41.517Z,16.50
2018-05-26T01:36:09.860Z,16.50
2018-05-26T01:38:38.977Z,16.40
2018-05-26T01:41:08.091Z,16.40
2018-05-26T01:43:36.561Z,16.30
2018-05-26T01:46:04.950Z,16.30
2018-05-26T01:48:33.290Z,16.30
2018-05-26T01:51:01.793Z,16.30
2018-05-26T01:53:30.914Z,16.20
2018-05-26T01:55:59.496Z,16.20
2018-05-26T01:58:27.836Z,16.10
2018-05-26T02:00:56.939Z,16.10
2018-05-26T02:03:26.086Z,16.10
2018-05-26T02:05:54.393Z,16.00
2018-05-26T02:08:22.746Z,16.00
2018-05-26T02:10:51.163Z,16.00
2018-05-26T02:13:19.574Z,16.00
2018-05-26T02:15:47.911Z,16.00
2018-05-26T02:18:16.243Z,16.00
2018-05-26T02:20:44.658Z,15.90
2018-05-26T02:23:12.997Z,15.80
2018-05-26T02:25:41.479Z,15.80
2018-05-26T02:28:09.823Z,15.70
2018-05-26T02:30:39.908Z,15.70
2018-05-26T02:33:08.265Z,15.60
2018-05-26T02:35:36.611Z,15.70
2018-05-26T02:38:05.729Z,15.70
2018-05-26T02:40:34.091Z,15.70
2018-05-26T02:43:03.202Z,15.70
2018-05-26T02:45:31.534Z,15.70
2018-05-26T02:48:00.747Z,15.70
2018-05-26T02:50:29.070Z,15.70
2018-05-26T02:52:57.410Z,15.60
2018-05-26T02:55:26.527Z,15.60
2018-05-26T02:57:54.927Z,15.60
2018-05-26T03:00:23.400Z,15.60
2018-05-26T03:02:51.750Z,15.50
2018-05-26T03:05:26.709Z,15.50
2018-05-26T03:08:00.707Z,15.40
2018-05-26T03:10:35.622Z,15.40
2018-05-26T03:13:09.755Z,15.40
2018-05-26T03:15:38.189Z,15.40
2018-05-26T03:18:06.546Z,15.40
2018-05-26T03:20:34.862Z,15.30
2018-05-26T03:23:03.244Z,15.30
2018-05-26T03:25:31.587Z,15.30
2018-05-26T03:27:59.913Z,15.30
2018-05-26T03:30:29.037Z,15.30
2018-05-26T03:32:57.443Z,15.20
2018-05-26T03:35:25.849Z,15.30
2018-05-26T03:37:54.269Z,15.30
2018-05-26T03:40:22.646Z,15.20
2018-05-26T03:42:51.167Z,15.30
2018-05-26T03:45:19.505Z,15.30
2018-05-26T03:47:47.842Z,15.30
2018-05-26T03:50:16.199Z,15.30
2018-05-26T03:52:44.535Z,15.30
2018-05-26T03:58:25.487Z,15.30
2018-05-26T04:00:53.937Z,15.30
2018-05-26T04:03:22.290Z,15.30
2018-05-26T04:05:51.433Z,15.30
2018-05-26T04:08:20.494Z,15.30
2018-05-26T04:10:48.942Z,15.30
2018-05-26T04:13:17.371Z,15.40
2018-05-26T04:15:45.713Z,15.40
2018-05-26T04:18:14.039Z,15.40
2018-05-26T04:20:42.374Z,15.40
2018-05-26T04:23:11.703Z,15.50
2018-05-26T04:25:40.081Z,15.50
2018-05-26T04:28:08.459Z,15.60
2018-05-26T04:30:36.811Z,15.60
2018-05-26T04:33:05.936Z,15.70
2018-05-26T04:35:34.264Z,15.70
2018-05-26T04:38:02.697Z,15.80
2018-05-26T04:40:31.294Z,15.80
2018-05-26T04:42:59.618Z,15.80
2018-05-26T04:45:27.967Z,15.90
2018-05-26T04:47:56.294Z,15.90
2018-05-26T04:50:24.638Z,15.90
2018-05-26T04:52:52.973Z,16.00
2018-05-26T04:55:21.321Z,16.10
2018-05-26T04:57:50.413Z,16.30
2018-05-26T05:00:19.529Z,16.30
2018-05-26T05:02:47.870Z,16.30
2018-05-26T05:05:16.267Z,16.40
2018-05-26T05:07:45.374Z,16.50
2018-05-26T05:10:14.490Z,16.60
2018-05-26T05:12:42.862Z,16.60
2018-05-26T05:15:12.700Z,16.70
2018-05-26T05:17:41.038Z,16.90
2018-05-26T05:20:10.279Z,16.90
2018-05-26T05:22:38.621Z,16.90
2018-05-26T05:25:06.958Z,17.00
2018-05-26T05:27:35.460Z,17.00
2018-05-26T05:30:03.896Z,17.10
2018-05-26T05:32:32.314Z,17.20
2018-05-26T05:35:00.927Z,17.20
2018-05-26T05:37:30.168Z,17.40
2018-05-26T05:39:58.536Z,17.40
2018-05-26T05:42:26.913Z,17.70
2018-05-26T05:44:55.454Z,17.90
2018-05-26T05:47:23.813Z,18.10
2018-05-26T05:49:52.160Z,18.40
2018-05-26T05:52:20.515Z,18.50
2018-05-26T05:54:48.858Z,18.60
2018-05-26T05:57:17.211Z,18.70
2018-05-26T05:59:45.637Z,18.90
2018-05-26T06:02:14.820Z,19.00
2018-05-26T06:04:43.151Z,19.00
2018-05-26T06:07:11.506Z,19.10
2018-05-26T06:09:39.865Z,19.10
2018-05-26T06:12:09.031Z,19.20
2018-05-26T06:14:37.494Z,19.20
2018-05-26T06:17:05.819Z,19.40
2018-05-26T06:19:34.945Z,19.60
2018-05-26T06:22:03.330Z,19.60
2018-05-26T06:24:31.705Z,19.70
2018-05-26T06:27:00.081Z,19.70
2018-05-26T06:29:28.438Z,19.90
2018-05-26T06:31:57.561Z,20.10
2018-05-26T06:34:25.897Z,20.10
2018-05-26T06:36:54.247Z,20.20
2018-05-26T06:39:22.755Z,20.20
2018-05-26T06:41:51.090Z,20.20
2018-05-26T06:44:19.424Z,20.30
2018-05-26T06:46:47.848Z,20.40
2018-05-26T06:49:16.342Z,20.50
2018-05-26T06:51:44.682Z,20.60
2018-05-26T06:54:13.787Z,20.80
2018-05-26T06:56:42.181Z,20.80
2018-05-26T06:59:10.599Z,21.00
2018-05-26T07:01:38.948Z,21.10
2018-05-26T07:04:07.546Z,21.20
2018-05-26T07:06:35.886Z,21.20
2018-05-26T07:09:04.263Z,21.30
2018-05-26T07:11:32.612Z,21.30
2018-05-26T07:14:01.038Z,21.40
2018-05-26T07:16:29.418Z,21.50
2018-05-26T07:18:57.822Z,21.50
2018-05-26T07:21:26.390Z,21.50
2018-05-26T07:23:54.722Z,21.50
2018-05-26T07:26:23.850Z,21.50
2018-05-26T07:28:52.244Z,21.50
2018-05-26T07:31:20.743Z,21.60
2018-05-26T07:33:49.146Z,21.60
2018-05-26T07:36:17.586Z,21.80
2018-05-26T07:38:45.942Z,21.90
2018-05-26T07:41:14.354Z,22.00
2018-05-26T07:43:42.698Z,22.10
2018-05-26T07:46:11.182Z,22.30
2018-05-26T07:48:40.288Z,22.50
2018-05-26T07:51:10.372Z,22.50
2018-05-26T07:53:38.726Z,22.70
2018-05-26T07:56:07.102Z,22.80
2018-05-26T07:58:35.469Z,23.00
2018-05-26T08:01:04.548Z,23.20
2018-05-26T08:03:33.736Z,23.20
2018-05-26T08:06:02.075Z,23.30
2018-05-26T08:08:30.427Z,23.40
2018-05-26T08:10:58.813Z,23.40
2018-05-26T08:13:27.115Z,23.30
2018-05-26T08:15:55.461Z,23.40
2018-05-26T08:18:23.794Z,23.40
2018-05-26T08:20:52.193Z,23.40
2018-05-26T08:23:20.656Z,23.50
2018-05-26T08:25:49.996Z,23.70
2018-05-26T08:28:18.422Z,23.60
2018-05-26T08:30:46.761Z,23.80
2018-05-26T08:33:15.236Z,23.90
2018-05-26T08:35:44.280Z,24.00
2018-05-26T08:38:13.388Z,24.10
2018-05-26T08:40:42.487Z,24.20
2018-05-26T08:43:11.719Z,24.40
2018-05-26T08:45:40.087Z,24.40
2018-05-26T08:48:08.474Z,24.50
2018-05-26T08:50:36.802Z,24.60
2018-05-26T08:53:05.151Z,24.80
2018-05-26T08:55:33.501Z,24.80
2018-05-26T08:58:01.879Z,24.90
2018-05-26T09:00:30.285Z,25.20
2018-05-26T09:02:58.896Z,25.40
2018-05-26T09:05:27.235Z,25.40
2018-05-26T09:07:55.573Z,25.40
2018-05-26T09:10:24.722Z,25.60
2018-05-26T09:12:53.073Z,25.60
2018-05-26T09:15:21.411Z,25.80
2018-05-26T09:17:49.887Z,25.90
2018-05-26T09:20:18.270Z,26.00
2018-05-26T09:22:46.612Z,26.20
2018-05-26T09:25:15.000Z,26.30
2018-05-26T09:27:44.092Z,26.70
2018-05-26T09:30:12.484Z,26.70
2018-05-26T09:32:40.831Z,26.80
2018-05-26T09:35:09.198Z,27.00
2018-05-26T09:37:37.603Z,27.10
2018-05-26T09:40:06.093Z,27.20
2018-05-26T09:42:35.233Z,27.40
2018-05-26T09:45:03.566Z,27.40
2018-05-26T09:47:31.930Z,27.50
2018-05-26T09:50:00.341Z,27.60
2018-05-26T09:52:28.796Z,27.80
2018-05-26T09:54:57.914Z,27.90
2018-05-26T09:57:26.276Z,28.30
2018-05-26T09:59:54.647Z,28.60
2018-05-26T10:02:23.001Z,28.90
2018-05-26T10:04:52.104Z,29.50
2018-05-26T10:07:20.475Z,29.40
2018-05-26T10:09:49.568Z,29.90
2018-05-26T10:12:18.751Z,30.10
2018-05-26T10:14:47.278Z,30.10
2018-05-26T10:17:15.611Z,30.20
2018-05-26T10:19:43.981Z,30.10
2018-05-26T10:22:12.746Z,30.30
2018-05-26T10:24:41.098Z,30.30
2018-05-26T10:27:09.458Z,30.50
2018-05-26T10:29:38.585Z,30.90
2018-05-26T10:32:07.129Z,30.90
2018-05-26T10:34:35.569Z,31.10
2018-05-26T10:37:03.917Z,31.20
2018-05-26T10:39:32.269Z,31.40
2018-05-26T10:42:01.375Z,31.60
2018-05-26T10:44:29.743Z,31.60
2018-05-26T10:46:58.850Z,31.80
2018-05-26T10:49:27.942Z,32.10
2018-05-26T10:51:57.192Z,32.30
2018-05-26T10:54:25.550Z,32.30
2018-05-26T10:56:54.634Z,32.50
2018-05-26T10:59:23.018Z,32.50
2018-05-26T11:01:51.393Z,32.70
2018-05-26T11:04:19.784Z,33.10
2018-05-26T11:06:48.169Z,33.30
2018-05-26T11:09:16.580Z,33.30
2018-05-26T11:11:45.134Z,33.30
2018-05-26T11:14:13.467Z,33.40
2018-05-26T11:16:42.583Z,33.60
2018-05-26T11:19:10.930Z,33.50
2018-05-26T11:21:39.369Z,33.80
2018-05-26T11:24:07.930Z,33.70
2018-05-26T11:26:36.128Z,33.70
2018-05-26T11:29:04.566Z,34.00
2018-05-26T11:31:32.883Z,34.00
2018-05-26T11:34:01.278Z,34.10
2018-05-26T11:36:29.594Z,33.80
2018-05-26T11:38:58.740Z,34.00
2018-05-26T11:41:27.127Z,34.00
2018-05-26T11:43:55.499Z,34.20
2018-05-26T11:46:23.882Z,34.50
2018-05-26T11:48:52.249Z,34.60
2018-05-26T11:51:20.830Z,34.70
2018-05-26T11:53:49.203Z,34.90
2018-05-26T11:56:17.584Z,35.10
2018-05-26T11:58:45.920Z,35.20
2018-05-26T12:01:14.443Z,35.00
2018-05-26T12:03:42.846Z,35.20
2018-05-26T12:06:11.321Z,35.10
2018-05-26T12:08:39.690Z,35.40
2018-05-26T12:11:08.225Z,35.60
2018-05-26T12:13:36.546Z,35.80
2018-05-26T12:16:04.934Z,35.80
2018-05-26T12:18:33.322Z,35.90
2018-05-26T12:21:01.707Z,36.00
2018-05-26T12:23:30.115Z,36.10
2018-05-26T12:25:58.496Z,36.00
2018-05-26T12:28:26.845Z,36.20
2018-05-26T12:30:55.483Z,36.30
2018-05-26T12:33:24.066Z,36.40
2018-05-26T12:35:53.167Z,36.50
2018-05-26T12:38:22.395Z,36.60
2018-05-26T12:40:50.746Z,36.60
2018-05-26T12:43:19.160Z,36.30
2018-05-26T12:45:47.644Z,36.30
2018-05-26T12:48:15.970Z,36.20
2018-05-26T12:50:44.503Z,36.30
2018-05-26T12:53:13.695Z,36.10
2018-05-26T12:55:42.087Z,36.10
2018-05-26T12:58:10.559Z,35.70
2018-05-26T13:00:38.942Z,35.60
2018-05-26T13:03:07.394Z,35.60
2018-05-26T13:05:35.731Z,36.00
2018-05-26T13:08:04.182Z,36.30
2018-05-26T13:10:32.629Z,36.70
2018-05-26T13:13:00.947Z,37.10
2018-05-26T13:15:29.356Z,37.20
2018-05-26T13:17:57.704Z,37.30
2018-05-26T13:20:26.144Z,37.30
2018-05-26T13:22:55.254Z,37.50
2018-05-26T13:25:23.768Z,37.50
2018-05-26T13:27:52.254Z,37.60
2018-05-26T13:30:20.567Z,37.50
2018-05-26T13:32:48.938Z,37.00
2018-05-26T13:35:17.290Z,36.70
2018-05-26T13:37:45.722Z,35.90
2018-05-26T13:40:14.848Z,35.70
2018-05-26T13:42:43.269Z,35.70
2018-05-26T13:45:11.810Z,36.00
2018-05-26T13:47:40.187Z,36.30
2018-05-26T13:50:08.573Z,36.50
2018-05-26T13:52:37.017Z,36.60
2018-05-26T13:55:05.363Z,35.80
2018-05-26T13:57:33.669Z,35.00
2018-05-26T14:00:02.010Z,34.30
2018-05-26T14:02:30.470Z,33.50
2018-05-26T14:04:58.847Z,33.10
2018-05-26T14:07:27.318Z,32.80
2018-05-26T14:09:55.707Z,33.10
2018-05-26T14:12:24.061Z,33.50
2018-05-26T14:14:52.411Z,34.10
2018-05-26T14:17:20.787Z,34.50
2018-05-26T14:19:49.263Z,35.10
2018-05-26T14:22:17.625Z,35.50
2018-05-26T14:24:45.986Z,35.90
2018-05-26T14:27:14.354Z,36.10
2018-05-26T14:29:42.736Z,36.40
2018-05-26T14:32:11.074Z,36.80
2018-05-26T14:34:39.655Z,36.90
2018-05-26T14:37:08.074Z,36.50
2018-05-26T14:39:36.426Z,36.90
2018-05-26T14:42:05.568Z,37.00
2018-05-26T14:44:33.890Z,37.00
2018-05-26T14:47:02.306Z,37.10
2018-05-26T14:49:30.654Z,37.20
2018-05-26T14:51:59.405Z,37.20
2018-05-26T14:54:27.730Z,37.10
2018-05-26T14:56:56.935Z,37.10
2018-05-26T14:59:26.042Z,36.90
2018-05-26T15:01:54.391Z,36.80
2018-05-26T15:04:22.821Z,36.90
2018-05-26T15:06:51.156Z,37.00
2018-05-26T15:09:19.584Z,37.10
2018-05-26T15:11:47.948Z,37.30
2018-05-26T15:14:16.328Z,37.40
2018-05-26T15:16:44.677Z,37.60
2018-05-26T15:19:14.034Z,37.80
2018-05-26T15:21:42.399Z,37.80
2018-05-26T15:24:10.768Z,37.80
2018-05-26T15:26:39.131Z,37.90
2018-05-26T15:29:08.251Z,37.80
2018-05-26T15:31:36.652Z,37.80
2018-05-26T15:34:05.725Z,37.80
2018-05-26T15:36:34.061Z,37.70
2018-05-26T15:39:02.422Z,37.30
2018-05-26T15:41:30.766Z,36.90
2018-05-26T15:43:59.130Z,36.80
2018-05-26T15:46:27.695Z,36.60
2018-05-26T15:48:56.895Z,36.00
2018-05-26T15:51:26.144Z,35.70
2018-05-26T15:53:54.516Z,35.70
2018-05-26T15:56:22.882Z,35.10
2018-05-26T15:58:51.279Z,34.20
2018-05-26T16:01:19.666Z,33.40
2018-05-26T16:03:48.014Z,32.60
2018-05-26T16:06:16.414Z,32.20
2018-05-26T16:08:44.776Z,32.30
2018-05-26T16:11:13.159Z,32.50
2018-05-26T16:13:41.481Z,32.80
2018-05-26T16:16:09.844Z,33.20
2018-05-26T16:18:38.260Z,33.50
2018-05-26T16:21:07.365Z,34.30
2018-05-26T16:23:36.490Z,34.50
2018-05-26T16:26:04.941Z,34.40
2018-05-26T16:28:34.063Z,35.50
2018-05-26T16:31:02.401Z,35.50
2018-05-26T16:33:30.802Z,36.30
2018-05-26T16:35:59.918Z,37.70
2018-05-26T16:38:28.331Z,37.60
2018-05-26T16:40:56.864Z,38.10
2018-05-26T16:43:26.049Z,38.40
2018-05-26T16:45:55.190Z,38.50
2018-05-26T16:48:23.601Z,38.40
2018-05-26T16:50:51.998Z,38.40
2018-05-26T16:53:21.139Z,38.70
2018-05-26T16:55:49.517Z,38.70
2018-05-26T16:58:17.871Z,38.70
2018-05-26T17:00:46.407Z,38.70
2018-05-26T17:03:14.998Z,38.50
2018-05-26T17:05:44.093Z,38.60
2018-05-26T17:08:12.663Z,38.30
2018-05-26T17:10:40.994Z,38.50
2018-05-26T17:13:09.368Z,38.40
2018-05-26T17:15:37.739Z,38.30
2018-05-26T17:18:06.112Z,38.10
2018-05-26T17:20:34.556Z,37.70
2018-05-26T17:23:02.918Z,37.30
2018-05-26T17:25:31.449Z,36.60
2018-05-26T17:27:59.846Z,35.80
2018-05-26T17:30:29.654Z,34.20
2018-05-26T17:32:58.011Z,34.10
2018-05-26T17:35:26.472Z,33.30
2018-05-26T17:37:54.837Z,32.70
2018-05-26T17:40:23.178Z,32.10
2018-05-26T17:42:53.022Z,31.00
2018-05-26T17:45:21.374Z,30.90
2018-05-26T17:47:49.737Z,30.50
2018-05-26T17:50:18.296Z,30.30
2018-05-26T17:52:46.650Z,30.20
2018-05-26T17:55:15.134Z,30.20
2018-05-26T17:57:43.506Z,30.30
2018-05-26T18:00:11.871Z,30.70
2018-05-26T18:02:40.297Z,31.20
2018-05-26T18:05:08.643Z,31.70
2018-05-26T18:07:37.240Z,32.10
2018-05-26T18:10:05.588Z,32.40
2018-05-26T18:12:34.696Z,33.00
2018-05-26T18:15:03.157Z,33.00
2018-05-26T18:17:31.462Z,32.70
2018-05-26T18:19:59.792Z,32.20
2018-05-26T18:22:28.254Z,31.80
2018-05-26T18:24:56.604Z,31.40
2018-05-26T18:27:25.123Z,30.90
2018-05-26T18:29:53.512Z,30.40
2018-05-26T18:32:21.868Z,30.10
2018-05-26T18:34:50.214Z,30.10
2018-05-26T18:37:18.570Z,30.20
2018-05-26T18:39:47.053Z,30.20
2018-05-26T18:42:16.176Z,29.90
2018-05-26T18:44:44.522Z,29.90
2018-05-26T18:47:14.357Z,29.10
2018-05-26T18:49:42.721Z,29.10
2018-05-26T18:52:11.069Z,28.60
2018-05-26T18:54:39.447Z,28.20
2018-05-26T18:57:07.802Z,27.70
2018-05-26T18:59:36.219Z,27.40
2018-05-26T19:02:04.626Z,27.10
2018-05-26T19:04:32.978Z,26.80
2018-05-26T19:07:01.482Z,26.50
2018-05-26T19:09:29.841Z,26.30
2018-05-26T19:11:58.173Z,26.00
2018-05-26T19:14:26.518Z,25.80
2018-05-26T19:16:54.867Z,25.60
2018-05-26T19:19:23.218Z,25.40
2018-05-26T19:21:51.565Z,25.20
2018-05-26T19:24:19.926Z,25.00
2018-05-26T19:26:49.063Z,24.70
2018-05-26T19:29:17.379Z,24.70
2018-05-26T19:31:45.729Z,24.50
2018-05-26T19:34:14.086Z,24.40
2018-05-26T19:36:42.450Z,24.30
2018-05-26T19:39:10.810Z,24.20
2018-05-26T19:41:39.950Z,24.00
2018-05-26T19:44:08.290Z,24.00
2018-05-26T19:46:37.415Z,23.90
2018-05-26T19:49:05.826Z,23.90
2018-05-26T19:51:34.182Z,23.80
2018-05-26T19:54:02.510Z,23.70
2018-05-26T19:56:31.646Z,23.60
2018-05-26T19:58:59.998Z,23.60
2018-05-26T20:01:29.131Z,23.50
2018-05-26T20:03:57.519Z,23.50
2018-05-26T20:06:25.858Z,23.50
2018-05-26T20:08:54.970Z,23.40
2018-05-26T20:11:23.362Z,23.40
2018-05-26T20:13:51.703Z,23.30
2018-05-26T20:16:20.044Z,23.30
2018-05-26T20:18:48.505Z,23.20
2018-05-26T20:21:16.986Z,23.20
2018-05-26T20:23:45.357Z,23.10
2018-05-26T20:26:13.713Z,23.10
2018-05-26T20:28:43.055Z,23.00
2018-05-26T20:31:11.438Z,23.00
2018-05-26T20:33:39.818Z,23.00
2018-05-26T20:36:08.152Z,22.90
2018-05-26T20:38:37.257Z,22.90
2018-05-26T20:41:05.602Z,22.80
2018-05-26T20:43:33.968Z,22.80
2018-05-26T20:46:02.509Z,22.70
2018-05-26T20:48:30.915Z,22.70
2018-05-26T20:50:59.286Z,22.70
2018-05-26T20:53:27.659Z,22.70
2018-05-26T20:55:56.024Z,22.60
2018-05-26T20:58:24.429Z,22.60
2018-05-26T21:00:52.916Z,22.40
2018-05-26T21:03:21.264Z,22.40
2018-05-26T21:05:49.659Z,22.30
2018-05-26T21:08:18.007Z,22.20
2018-05-26T21:10:47.112Z,22.10
2018-05-26T21:13:15.488Z,22.00
2018-05-26T21:15:44.658Z,21.90
2018-05-26T21:18:12.990Z,21.90
2018-05-26T21:20:41.383Z,21.90
2018-05-26T21:23:09.722Z,21.80
2018-05-26T21:25:38.062Z,21.70
2018-05-26T21:28:06.586Z,21.60
2018-05-26T21:30:35.706Z,21.40
2018-05-26T21:33:04.095Z,21.40
2018-05-26T21:35:32.465Z,21.40
2018-05-26T21:38:00.809Z,21.30
2018-05-26T21:40:29.232Z,21.20
2018-05-26T21:42:57.612Z,21.10
2018-05-26T21:45:25.941Z,21.10
2018-05-26T21:47:55.089Z,21.00
2018-05-26T21:50:23.441Z,20.90
2018-05-26T21:52:51.835Z,20.90
2018-05-26T21:55:20.395Z,20.90
2018-05-26T21:57:49.570Z,20.80
2018-05-26T22:00:17.927Z,20.70
2018-05-26T22:02:46.333Z,20.70
2018-05-26T22:05:15.455Z,20.50
2018-05-26T22:07:43.850Z,20.50
2018-05-26T22:10:12.216Z,20.40
2018-05-26T22:12:40.574Z,20.40
2018-05-26T22:15:09.778Z,20.20
2018-05-26T22:17:38.953Z,20.20
2018-05-26T22:20:07.496Z,20.10
2018-05-26T22:22:35.836Z,20.10
2018-05-26T22:25:04.951Z,20.00
2018-05-26T22:27:33.356Z,20.00
2018-05-26T22:30:01.815Z,20.00
2018-05-26T22:32:30.203Z,20.00
2018-05-26T22:34:58.539Z,19.90
2018-05-26T22:37:27.669Z,19.90
2018-05-26T22:39:56.821Z,19.80
2018-05-26T22:42:25.159Z,19.80
2018-05-26T22:44:54.441Z,19.80
2018-05-26T22:47:22.787Z,19.70
2018-05-26T22:49:51.207Z,19.70
2018-05-26T22:52:19.541Z,19.70
2018-05-26T22:54:47.989Z,19.70
2018-05-26T22:57:16.375Z,19.70
2018-05-26T22:59:44.830Z,19.70
2018-05-26T23:02:13.173Z,19.60
2018-05-26T23:04:42.282Z,19.50
2018-05-26T23:07:10.629Z,19.50
2018-05-26T23:09:38.971Z,19.50
2018-05-26T23:12:07.313Z,19.40
2018-05-26T23:14:36.471Z,19.30
2018-05-26T23:17:04.914Z,19.20
2018-05-26T23:19:33.254Z,19.20
2018-05-26T23:22:01.599Z,19.20
2018-05-26T23:24:29.938Z,19.20
2018-05-26T23:26:58.298Z,19.20
2018-05-26T23:29:26.721Z,19.20
2018-05-26T23:31:55.070Z,19.10
2018-05-26T23:34:24.262Z,19.00
2018-05-26T23:36:53.355Z,19.00
2018-05-26T23:39:22.459Z,19.00
2018-05-26T23:41:51.574Z,18.90
2018-05-26T23:44:19.955Z,18.90
2018-05-26T23:46:48.343Z,18.90
2018-05-26T23:49:16.678Z,18.90
2018-05-26T23:51:45.781Z,18.80
2018-05-26T23:54:14.898Z,18.80
2018-05-26T23:56:43.244Z,18.80
2018-05-26T23:59:11.620Z,18.70
